createdAt,value
2018-07-02T00:00:37.208Z,4.57
2018-07-02T00:03:06.480Z,2.60
2018-07-02T00:05:46.452Z,2.60
2018-07-02T00:08:15.718Z,3.37
2018-07-02T00:10:44.968Z,3.90
2018-07-02T00:13:14.305Z,2.67
2018-07-02T00:15:43.568Z,4.93
2018-07-02T00:18:12.993Z,3.20
2018-07-02T00:20:42.283Z,2.47
2018-07-02T00:23:11.660Z,3.13
2018-07-02T00:25:40.903Z,3.00
2018-07-02T00:28:10.121Z,3.47
2018-07-02T00:30:39.401Z,2.83
2018-07-02T00:33:08.627Z,3.57
2018-07-02T00:35:37.828Z,3.50
2018-07-02T00:38:07.054Z,5.47
2018-07-02T00:40:35.777Z,3.00
2018-07-02T00:43:05.049Z,2.60
2018-07-02T00:45:34.308Z,2.50
2018-07-02T00:48:03.652Z,2.50
2018-07-02T00:50:32.912Z,3.03
2018-07-02T00:53:02.139Z,3.17
2018-07-02T00:55:31.364Z,3.10
2018-07-02T00:58:00.604Z,3.47
2018-07-02T01:00:29.833Z,2.60
2018-07-02T01:02:59.250Z,3.00
2018-07-02T01:05:28.444Z,2.93
2018-07-02T01:07:57.838Z,4.43
2018-07-02T01:10:27.035Z,3.10
2018-07-02T01:12:56.509Z,2.90
2018-07-02T01:15:25.743Z,3.70
2018-07-02T01:17:55.040Z,3.03
2018-07-02T01:20:24.313Z,3.93
2018-07-02T01:22:53.592Z,4.73
2018-07-02T01:25:22.960Z,4.60
2018-07-02T01:27:52.184Z,5.57
2018-07-02T01:30:21.672Z,4.07
2018-07-02T01:32:51.091Z,3.00
2018-07-02T01:35:20.325Z,4.60
2018-07-02T01:37:49.564Z,3.90
2018-07-02T01:40:18.792Z,5.67
2018-07-02T01:42:48.040Z,4.53
2018-07-02T01:45:17.248Z,3.20
2018-07-02T01:47:46.452Z,4.53
2018-07-02T01:50:15.745Z,3.13
2018-07-02T01:52:45.057Z,3.23
2018-07-02T01:55:14.411Z,5.40
2018-07-02T01:57:43.685Z,3.00
2018-07-02T02:00:12.909Z,3.53
2018-07-02T02:02:42.153Z,4.43
2018-07-02T02:05:11.416Z,3.53
2018-07-02T02:07:40.641Z,3.20
2018-07-02T02:10:09.906Z,4.57
2018-07-02T02:12:39.179Z,4.90
2018-07-02T02:15:08.740Z,2.67
2018-07-02T02:17:37.675Z,3.10
2018-07-02T02:20:07.028Z,3.27
2018-07-02T02:22:36.543Z,3.70
2018-07-02T02:25:06.509Z,2.70
2018-07-02T02:27:35.770Z,3.80
2018-07-02T02:30:05.716Z,3.13
2018-07-02T02:32:35.059Z,3.00
2018-07-02T02:35:04.352Z,6.07
2018-07-02T02:37:33.616Z,4.77
2018-07-02T02:40:02.988Z,3.80
2018-07-02T02:42:32.534Z,3.40
2018-07-02T02:45:01.759Z,3.07
2018-07-02T02:47:30.993Z,3.30
2018-07-02T02:50:00.246Z,3.37
2018-07-02T02:52:29.557Z,2.93
2018-07-02T02:54:58.827Z,6.00
2018-07-02T02:57:28.195Z,3.77
2018-07-02T02:59:57.484Z,3.60
2018-07-02T03:02:26.982Z,3.57
2018-07-02T03:04:56.204Z,4.93
2018-07-02T03:07:25.516Z,3.43
2018-07-02T03:09:54.760Z,3.20
2018-07-02T03:12:24.028Z,4.20
2018-07-02T03:14:53.281Z,3.20
2018-07-02T03:17:22.492Z,3.10
2018-07-02T03:19:51.755Z,3.80
2018-07-02T03:22:20.993Z,3.47
2018-07-02T03:24:50.352Z,3.57
2018-07-02T03:27:19.686Z,2.87
2018-07-02T03:29:48.961Z,4.40
2018-07-02T03:32:18.228Z,3.80
2018-07-02T03:34:47.453Z,3.27
2018-07-02T03:37:16.680Z,4.73
2018-07-02T03:39:45.895Z,3.83
2018-07-02T03:42:15.247Z,2.83
2018-07-02T03:44:44.452Z,3.30
2018-07-02T03:47:13.680Z,3.43
2018-07-02T03:49:42.882Z,6.60
2018-07-02T03:52:12.089Z,3.90
2018-07-02T03:54:41.315Z,3.70
2018-07-02T03:57:10.517Z,3.93
2018-07-02T03:59:40.080Z,7.50
2018-07-02T04:02:09.423Z,3.63
2018-07-02T04:04:38.675Z,3.30
2018-07-02T04:07:07.979Z,3.60
2018-07-02T04:09:37.220Z,4.37
2018-07-02T04:12:06.524Z,4.47
2018-07-02T04:14:35.753Z,4.63
2018-07-02T04:17:04.951Z,7.70
2018-07-02T04:19:34.173Z,4.67
2018-07-02T04:22:03.648Z,8.10
2018-07-02T04:24:32.858Z,7.43
2018-07-02T04:27:02.085Z,5.60
2018-07-02T04:29:31.327Z,4.10
2018-07-02T04:32:00.733Z,7.77
2018-07-02T04:34:29.956Z,5.20
2018-07-02T04:36:59.224Z,5.70
2018-07-02T04:39:28.445Z,3.77
2018-07-02T04:41:57.685Z,3.77
2018-07-02T04:44:26.916Z,6.10
2018-07-02T04:46:56.178Z,3.67
2018-07-02T04:49:26.236Z,7.87
2018-07-02T04:51:55.773Z,22.83
2018-07-02T04:54:25.000Z,9.53
2018-07-02T04:56:54.238Z,4.63
2018-07-02T04:59:23.597Z,7.70
2018-07-02T05:01:52.941Z,8.87
2018-07-02T05:04:22.229Z,20.83
2018-07-02T05:06:51.816Z,22.97
2018-07-02T05:09:21.109Z,71.03
2018-07-02T05:11:50.439Z,26.33
2018-07-02T05:14:19.649Z,18.00
2018-07-02T05:16:48.900Z,20.10
2018-07-02T05:19:18.175Z,8.87
2018-07-02T05:21:47.481Z,6.40
2018-07-02T05:24:16.747Z,5.47
2018-07-02T05:26:46.000Z,5.87
2018-07-02T05:29:15.257Z,9.63
2018-07-02T05:31:44.587Z,11.40
2018-07-02T05:34:13.873Z,6.33
2018-07-02T05:36:43.148Z,7.30
2018-07-02T05:39:12.692Z,4.63
2018-07-02T05:41:42.043Z,6.37
2018-07-02T05:44:11.385Z,7.43
2018-07-02T05:46:40.720Z,6.60
2018-07-02T05:49:10.019Z,4.53
2018-07-02T05:51:39.269Z,3.90
2018-07-02T05:54:08.597Z,6.80
2018-07-02T05:56:37.989Z,9.13
2018-07-02T05:59:07.285Z,14.70
2018-07-02T06:01:36.602Z,10.53
2018-07-02T06:04:05.888Z,11.20
2018-07-02T06:06:35.127Z,14.93
2018-07-02T06:09:06.636Z,11.20
2018-07-02T06:11:36.348Z,12.33
2018-07-02T06:14:05.634Z,19.33
2018-07-02T06:16:35.011Z,13.87
2018-07-02T06:19:04.300Z,15.13
2018-07-02T06:21:33.681Z,15.67
2018-07-02T06:24:03.006Z,10.13
2018-07-02T06:26:32.384Z,13.80
2018-07-02T06:29:01.706Z,13.00
2018-07-02T06:31:31.117Z,12.50
2018-07-02T06:34:00.437Z,17.27
2018-07-02T06:36:29.801Z,24.47
2018-07-02T06:38:59.067Z,22.17
2018-07-02T06:41:28.509Z,25.53
2018-07-02T06:43:58.147Z,39.53
2018-07-02T06:46:27.448Z,28.20
2018-07-02T06:48:56.801Z,34.43
2018-07-02T06:51:28.364Z,29.23
2018-07-02T06:53:57.898Z,41.10
2018-07-02T06:56:27.253Z,33.77
2018-07-02T06:58:56.604Z,45.40
2018-07-02T07:01:25.360Z,38.53
2018-07-02T07:03:54.687Z,31.73
2018-07-02T07:06:23.463Z,28.50
2018-07-02T07:08:52.818Z,33.70
2018-07-02T07:11:22.272Z,25.73
2018-07-02T07:13:55.101Z,22.90
2018-07-02T07:16:25.071Z,26.33
2018-07-02T07:18:54.368Z,29.70
2018-07-02T07:21:23.800Z,22.80
2018-07-02T07:23:53.035Z,15.77
2018-07-02T07:26:22.285Z,24.80
2018-07-02T07:28:53.092Z,20.17
2018-07-02T07:31:22.639Z,36.97
2018-07-02T07:33:51.975Z,43.13
2018-07-02T07:36:21.211Z,41.93
2018-07-02T07:38:50.514Z,45.17
2018-07-02T07:41:19.914Z,34.40
2018-07-02T07:43:49.223Z,37.37
2018-07-02T07:46:18.544Z,42.37
2018-07-02T07:48:48.174Z,33.50
2018-07-02T07:51:17.557Z,40.80
2018-07-02T07:53:46.881Z,39.97
2018-07-02T07:56:16.194Z,31.57
2018-07-02T07:58:45.518Z,34.20
2018-07-02T08:01:14.944Z,28.23
2018-07-02T08:03:44.401Z,27.03
2018-07-02T08:06:13.667Z,33.20
2018-07-02T08:08:42.973Z,39.43
2018-07-02T08:11:12.327Z,33.30
2018-07-02T08:13:43.493Z,34.53
2018-07-02T08:16:12.854Z,31.83
2018-07-02T08:18:42.242Z,27.27
2018-07-02T08:21:12.273Z,25.63
2018-07-02T08:23:41.560Z,27.73
2018-07-02T08:26:10.956Z,26.20
2018-07-02T08:28:40.245Z,24.23
2018-07-02T08:31:09.573Z,30.07
2018-07-02T08:33:38.812Z,27.50
2018-07-02T08:36:08.196Z,18.03
2018-07-02T08:38:37.443Z,20.80
2018-07-02T08:41:06.809Z,19.17
2018-07-02T08:43:36.073Z,24.97
2018-07-02T08:46:05.348Z,18.93
2018-07-02T08:48:34.636Z,18.30
2018-07-02T08:51:04.010Z,19.60
2018-07-02T08:53:32.754Z,14.50
2018-07-02T08:56:02.016Z,14.17
2018-07-02T08:58:31.357Z,18.73
2018-07-02T09:01:00.725Z,16.57
2018-07-02T09:03:29.962Z,16.53
2018-07-02T09:05:59.254Z,18.63
2018-07-02T09:08:28.618Z,15.30
2018-07-02T09:10:57.958Z,13.10
2018-07-02T09:13:27.189Z,16.20
2018-07-02T09:15:56.484Z,16.53
2018-07-02T09:18:25.989Z,13.93
2018-07-02T09:20:55.292Z,11.43
2018-07-02T09:23:24.538Z,15.60
2018-07-02T09:25:53.814Z,13.90
2018-07-02T09:28:23.158Z,12.43
2018-07-02T09:30:52.493Z,10.43
2018-07-02T09:33:21.749Z,10.57
2018-07-02T09:35:51.040Z,13.17
2018-07-02T09:38:20.351Z,12.90
2018-07-02T09:40:49.692Z,10.20
2018-07-02T09:43:18.994Z,11.03
2018-07-02T09:45:48.311Z,14.50
2018-07-02T09:48:17.596Z,13.93
2018-07-02T09:50:46.921Z,16.23
2018-07-02T09:53:16.279Z,16.70
2018-07-02T09:55:45.564Z,12.20
2018-07-02T09:58:14.902Z,15.40
2018-07-02T10:00:44.297Z,18.73
2018-07-02T10:03:13.580Z,18.50
2018-07-02T10:05:42.880Z,14.40
2018-07-02T10:08:12.277Z,18.00
2018-07-02T10:10:41.549Z,15.00
2018-07-02T10:13:10.816Z,15.83
2018-07-02T10:15:40.081Z,14.37
2018-07-02T10:18:09.348Z,14.07
2018-07-02T10:20:38.687Z,14.10
2018-07-02T10:23:08.021Z,14.40
2018-07-02T10:25:37.389Z,12.93
2018-07-02T10:28:06.631Z,10.67
2018-07-02T10:30:35.952Z,11.03
2018-07-02T10:33:05.289Z,16.87
2018-07-02T10:35:34.585Z,14.53
2018-07-02T10:38:03.887Z,15.63
2018-07-02T10:40:33.174Z,12.57
2018-07-02T10:43:02.437Z,13.97
2018-07-02T10:45:31.699Z,9.73
2018-07-02T10:48:00.985Z,12.70
2018-07-02T10:50:30.315Z,10.57
2018-07-02T10:52:59.623Z,13.97
2018-07-02T10:55:28.983Z,12.57
2018-07-02T10:57:58.314Z,15.80
2018-07-02T11:00:27.548Z,10.00
2018-07-02T11:02:57.376Z,10.90
2018-07-02T11:05:26.696Z,11.43
2018-07-02T11:07:56.055Z,12.60
2018-07-02T11:10:25.417Z,11.73
2018-07-02T11:12:54.703Z,10.30
2018-07-02T11:15:23.952Z,11.17
2018-07-02T11:17:52.711Z,10.63
2018-07-02T11:20:21.993Z,12.27
2018-07-02T11:22:51.337Z,10.63
2018-07-02T11:25:20.069Z,12.40
2018-07-02T11:27:49.319Z,10.47
2018-07-02T11:30:18.723Z,8.60
2018-07-02T11:32:48.161Z,8.87
2018-07-02T11:35:17.478Z,10.10
2018-07-02T11:37:46.716Z,8.47
2018-07-02T11:40:15.960Z,9.57
2018-07-02T11:42:45.283Z,10.80
2018-07-02T11:45:14.525Z,8.80
2018-07-02T11:47:43.813Z,7.83
2018-07-02T11:50:13.079Z,9.10
2018-07-02T11:52:42.389Z,7.40
2018-07-02T11:55:11.643Z,8.97
2018-07-02T11:57:40.893Z,7.10
2018-07-02T12:00:10.400Z,8.30
2018-07-02T12:02:40.201Z,6.53
2018-07-02T12:05:09.429Z,6.90
2018-07-02T12:07:38.737Z,9.43
2018-07-02T12:10:08.200Z,10.33
2018-07-02T12:12:37.610Z,9.07
2018-07-02T12:15:06.931Z,7.53
2018-07-02T12:17:36.352Z,8.97
2018-07-02T12:20:06.020Z,21.03
2018-07-02T12:22:35.401Z,10.60
2018-07-02T12:25:04.721Z,13.53
2018-07-02T12:27:34.040Z,13.50
2018-07-02T12:30:03.328Z,12.97
2018-07-02T12:32:32.797Z,15.37
2018-07-02T12:35:02.133Z,14.53
2018-07-02T12:37:31.473Z,9.43
2018-07-02T12:40:00.815Z,9.77
2018-07-02T12:42:30.179Z,11.43
2018-07-02T12:44:59.456Z,14.73
2018-07-02T12:47:28.733Z,11.77
2018-07-02T12:49:58.022Z,11.40
2018-07-02T12:52:27.356Z,15.70
2018-07-02T12:54:56.641Z,15.90
2018-07-02T12:57:25.946Z,9.33
2018-07-02T12:59:55.295Z,16.03
2018-07-02T13:02:24.720Z,8.33
2018-07-02T13:04:54.692Z,13.83
2018-07-02T13:07:23.483Z,12.50
2018-07-02T13:09:52.923Z,10.43
2018-07-02T13:12:22.834Z,15.73
2018-07-02T13:14:52.300Z,17.33
2018-07-02T13:17:21.588Z,14.93
2018-07-02T13:19:50.924Z,13.60
2018-07-02T13:22:20.385Z,15.20
2018-07-02T13:24:49.678Z,15.37
2018-07-02T13:27:18.935Z,11.47
2018-07-02T13:29:48.209Z,11.30
2018-07-02T13:32:17.615Z,9.67
2018-07-02T13:34:46.973Z,15.13
2018-07-02T13:37:16.580Z,12.43
2018-07-02T13:39:45.878Z,13.80
2018-07-02T13:42:15.246Z,25.63
2018-07-02T13:44:45.032Z,10.93
2018-07-02T13:47:14.299Z,12.30
2018-07-02T13:49:43.604Z,13.50
2018-07-02T13:52:12.921Z,12.67
2018-07-02T13:54:42.244Z,16.33
2018-07-02T13:57:11.581Z,15.67
2018-07-02T13:59:40.919Z,19.17
2018-07-02T14:02:10.232Z,15.67
2018-07-02T14:04:39.564Z,11.77
2018-07-02T14:07:08.826Z,11.70
2018-07-02T14:09:38.218Z,14.00
2018-07-02T14:12:07.580Z,10.60
2018-07-02T14:14:36.866Z,11.67
2018-07-02T14:17:06.437Z,11.37
2018-07-02T14:19:35.710Z,12.60
2018-07-02T14:22:05.033Z,9.10
2018-07-02T14:24:34.288Z,8.63
2018-07-02T14:27:03.521Z,9.47
2018-07-02T14:29:32.780Z,11.70
2018-07-02T14:32:02.121Z,9.47
2018-07-02T14:34:31.458Z,8.87
2018-07-02T14:37:00.761Z,11.77
2018-07-02T14:39:30.056Z,11.80
2018-07-02T14:41:59.483Z,8.90
2018-07-02T14:44:28.791Z,8.10
2018-07-02T14:46:58.036Z,9.10
2018-07-02T14:49:27.805Z,8.67
2018-07-02T14:51:57.137Z,9.43
2018-07-02T14:54:26.371Z,9.67
2018-07-02T14:56:55.624Z,8.00
2018-07-02T14:59:24.908Z,8.47
2018-07-02T15:01:54.308Z,7.97
2018-07-02T15:04:23.576Z,8.27
2018-07-02T15:06:52.332Z,8.93
2018-07-02T15:09:21.552Z,10.23
2018-07-02T15:11:51.147Z,9.43
2018-07-02T15:14:20.519Z,7.63
2018-07-02T15:16:53.267Z,7.70
2018-07-02T15:19:22.654Z,7.50
2018-07-02T15:21:52.068Z,9.73
2018-07-02T15:24:21.334Z,8.30
2018-07-02T15:26:50.612Z,9.33
2018-07-02T15:29:19.880Z,8.50
2018-07-02T15:31:50.249Z,8.33
2018-07-02T15:34:19.492Z,7.90
2018-07-02T15:36:48.767Z,9.73
2018-07-02T15:39:18.123Z,7.40
2018-07-02T15:41:47.569Z,8.07
2018-07-02T15:44:16.744Z,12.83
2018-07-02T15:46:46.114Z,13.70
2018-07-02T15:49:15.367Z,9.30
2018-07-02T15:51:45.147Z,10.27
2018-07-02T15:54:15.557Z,11.10
2018-07-02T15:56:44.885Z,11.23
2018-07-02T15:59:14.185Z,7.93
2018-07-02T16:01:43.509Z,8.33
2018-07-02T16:04:12.825Z,7.27
2018-07-02T16:06:42.101Z,7.50
2018-07-02T16:09:12.446Z,7.67
2018-07-02T16:11:41.864Z,9.47
2018-07-02T16:14:11.138Z,6.93
2018-07-02T16:16:40.424Z,7.03
2018-07-02T16:19:09.780Z,7.23
2018-07-02T16:21:39.122Z,9.20
2018-07-02T16:24:09.250Z,7.60
2018-07-02T16:26:39.013Z,9.90
2018-07-02T16:29:08.297Z,9.03
2018-07-02T16:31:37.671Z,10.70
2018-07-02T16:34:09.441Z,8.13
2018-07-02T16:36:38.242Z,7.53
2018-07-02T16:39:09.749Z,8.17
2018-07-02T16:41:39.190Z,9.43
2018-07-02T16:44:08.901Z,7.20
2018-07-02T16:46:38.210Z,8.20
2018-07-02T16:49:07.457Z,7.40
2018-07-02T16:51:36.899Z,9.60
2018-07-02T16:54:06.160Z,9.40
2018-07-02T16:56:38.779Z,7.17
2018-07-02T16:59:08.210Z,8.30
2018-07-02T17:01:37.569Z,7.47
2018-07-02T17:04:07.022Z,11.57
2018-07-02T17:06:36.337Z,9.83
2018-07-02T17:09:09.556Z,8.50
2018-07-02T17:11:39.685Z,7.17
2018-07-02T17:14:09.305Z,9.63
2018-07-02T17:16:38.987Z,8.87
2018-07-02T17:19:08.326Z,9.83
2018-07-02T17:21:37.815Z,11.93
2018-07-02T17:24:07.261Z,14.67
2018-07-02T17:26:36.485Z,13.67
2018-07-02T17:29:05.759Z,9.73
2018-07-02T17:31:35.259Z,8.03
2018-07-02T17:34:04.520Z,11.30
2018-07-02T17:36:33.862Z,11.77
2018-07-02T17:39:03.169Z,9.30
2018-07-02T17:41:32.511Z,7.00
2018-07-02T17:44:01.817Z,8.07
2018-07-02T17:46:31.105Z,7.53
2018-07-02T17:49:00.397Z,8.70
2018-07-02T17:51:29.800Z,7.57
2018-07-02T17:53:59.071Z,6.63
2018-07-02T17:56:28.295Z,8.77
2018-07-02T17:58:57.571Z,8.17
2018-07-02T18:01:26.893Z,6.70
2018-07-02T18:03:56.369Z,7.53
2018-07-02T18:06:25.629Z,6.30
2018-07-02T18:08:54.895Z,6.40
2018-07-02T18:11:24.220Z,6.87
2018-07-02T18:13:53.494Z,6.20
2018-07-02T18:16:22.749Z,8.30
2018-07-02T18:18:52.090Z,7.43
2018-07-02T18:21:21.343Z,6.13
2018-07-02T18:23:50.589Z,9.33
2018-07-02T18:26:19.954Z,6.63
2018-07-02T18:28:49.170Z,6.17
2018-07-02T18:31:18.557Z,6.47
2018-07-02T18:33:49.755Z,6.20
2018-07-02T18:36:19.121Z,6.20
2018-07-02T18:38:48.417Z,6.97
2018-07-02T18:41:17.779Z,8.23
2018-07-02T18:43:46.984Z,6.43
2018-07-02T18:46:16.277Z,6.60
2018-07-02T18:48:45.542Z,8.93
2018-07-02T18:51:14.880Z,7.07
2018-07-02T18:53:44.151Z,11.20
2018-07-02T18:56:13.425Z,7.00
2018-07-02T18:58:42.774Z,9.37
2018-07-02T19:01:12.081Z,6.90
2018-07-02T19:03:40.851Z,5.80
2018-07-02T19:06:10.104Z,6.57
2018-07-02T19:08:39.709Z,7.87
2018-07-02T19:11:09.041Z,9.70
2018-07-02T19:13:38.287Z,6.03
2018-07-02T19:16:07.527Z,5.90
2018-07-02T19:18:36.793Z,5.60
2018-07-02T19:21:06.222Z,5.60
2018-07-02T19:23:35.470Z,6.07
2018-07-02T19:26:04.845Z,7.50
2018-07-02T19:28:34.213Z,7.87
2018-07-02T19:31:03.600Z,9.03
2018-07-02T19:33:32.902Z,6.03
2018-07-02T19:36:02.173Z,8.43
2018-07-02T19:38:31.462Z,5.87
2018-07-02T19:41:01.243Z,6.07
2018-07-02T19:43:30.495Z,6.23
2018-07-02T19:45:59.736Z,5.70
2018-07-02T19:48:28.957Z,11.13
2018-07-02T19:50:58.271Z,5.90
2018-07-02T19:53:27.496Z,9.50
2018-07-02T19:55:56.808Z,12.47
2018-07-02T19:58:26.101Z,9.13
2018-07-02T20:00:55.441Z,12.17
2018-07-02T20:03:24.800Z,14.17
2018-07-02T20:05:54.133Z,10.93
2018-07-02T20:08:23.392Z,12.77
2018-07-02T20:10:53.170Z,12.00
2018-07-02T20:13:22.499Z,7.93
2018-07-02T20:15:51.672Z,11.17
2018-07-02T20:18:20.876Z,6.50
2018-07-02T20:20:50.135Z,11.40
2018-07-02T20:23:19.337Z,5.50
2018-07-02T20:25:48.558Z,6.53
2018-07-02T20:28:17.758Z,7.33
2018-07-02T20:30:47.140Z,9.07
2018-07-02T20:33:17.304Z,8.67
2018-07-02T20:35:47.025Z,6.57
2018-07-02T20:38:16.485Z,7.70
2018-07-02T20:40:45.775Z,7.27
2018-07-02T20:43:15.028Z,7.07
2018-07-02T20:45:44.610Z,7.50
2018-07-02T20:48:13.796Z,6.07
2018-07-02T20:50:43.035Z,8.03
2018-07-02T20:53:12.237Z,8.20
2018-07-02T20:55:41.602Z,8.07
2018-07-02T20:58:10.799Z,7.10
2018-07-02T21:00:39.998Z,5.80
2018-07-02T21:03:09.202Z,7.73
2018-07-02T21:05:38.402Z,7.47
2018-07-02T21:08:07.693Z,8.23
2018-07-02T21:10:36.954Z,8.60
2018-07-02T21:13:06.128Z,8.07
2018-07-02T21:15:35.316Z,6.43
2018-07-02T21:18:04.628Z,6.70
2018-07-02T21:20:33.831Z,7.20
2018-07-02T21:23:03.168Z,6.83
2018-07-02T21:25:32.384Z,7.23
2018-07-02T21:28:01.582Z,6.77
2018-07-02T21:30:30.789Z,7.83
2018-07-02T21:33:00.013Z,7.57
2018-07-02T21:35:29.214Z,7.17
2018-07-02T21:37:58.450Z,7.07
2018-07-02T21:40:27.705Z,12.13
2018-07-02T21:42:56.970Z,9.10
2018-07-02T21:45:26.174Z,8.20
2018-07-02T21:47:55.368Z,6.97
2018-07-02T21:50:24.584Z,8.20
2018-07-02T21:52:53.800Z,7.43
2018-07-02T21:55:22.996Z,7.10
2018-07-02T21:57:52.187Z,7.27
2018-07-02T22:00:21.368Z,9.17
2018-07-02T22:02:50.616Z,6.67
2018-07-02T22:05:19.817Z,8.77
2018-07-02T22:07:49.093Z,8.93
2018-07-02T22:10:18.282Z,7.63
2018-07-02T22:12:47.597Z,6.90
2018-07-02T22:15:16.828Z,6.70
2018-07-02T22:17:46.010Z,6.77
2018-07-02T22:20:15.196Z,6.33
2018-07-02T22:22:44.397Z,8.77
2018-07-02T22:25:13.580Z,7.80
2018-07-02T22:27:42.748Z,6.40
2018-07-02T22:30:11.917Z,6.80
2018-07-02T22:32:41.174Z,6.93
2018-07-02T22:35:10.373Z,9.33
2018-07-02T22:37:39.570Z,7.10
2018-07-02T22:40:08.738Z,6.47
2018-07-02T22:42:38.065Z,7.17
2018-07-02T22:45:07.676Z,7.57
2018-07-02T22:47:36.916Z,6.33
2018-07-02T22:50:06.172Z,6.67
2018-07-02T22:52:35.417Z,5.93
2018-07-02T22:55:04.917Z,6.70
2018-07-02T22:57:34.117Z,7.93
2018-07-02T23:00:03.300Z,9.27
2018-07-02T23:02:32.571Z,5.80
2018-07-02T23:05:01.741Z,7.33
2018-07-02T23:07:30.939Z,8.50
2018-07-02T23:10:00.109Z,8.77
2018-07-02T23:12:29.360Z,6.93
2018-07-02T23:14:58.564Z,8.17
2018-07-02T23:17:27.910Z,6.43
2018-07-02T23:19:57.159Z,8.17
2018-07-02T23:22:31.220Z,6.67
2018-07-02T23:25:00.400Z,7.40
2018-07-02T23:27:29.227Z,7.63
2018-07-02T23:29:58.404Z,6.73
2018-07-02T23:32:27.663Z,7.00
2018-07-02T23:34:56.848Z,6.43
2018-07-02T23:37:26.057Z,7.83
2018-07-02T23:39:55.244Z,7.37
2018-07-02T23:42:24.444Z,6.33
2018-07-02T23:44:53.653Z,12.00
2018-07-02T23:47:22.844Z,6.87
2018-07-02T23:49:52.089Z,6.53
2018-07-02T23:52:21.414Z,6.43
2018-07-02T23:54:50.620Z,6.07
2018-07-02T23:57:19.816Z,6.30
2018-07-02T23:59:49.189Z,7.80
